sensor_id;sensor_type;location;lat;lon;timestamp;temperature;humidity
22224;DHT22;11281;52.194;21.006;2023-02-28T00:01:54;-1.70;99.90
22224;DHT22;11281;52.194;21.006;2023-02-28T00:06:16;-1.80;99.90
22224;DHT22;11281;52.194;21.006;2023-02-28T00:10:38;-2.00;99.90
22224;DHT22;11281;52.194;21.006;2023-02-28T00:15:00;-2.10;99.90
22224;DHT22;11281;52.194;21.006;2023-02-28T00:19:22;-2.20;99.90
22224;DHT22;11281;52.194;21.006;2023-02-28T00:23:44;-2.30;99.90
22224;DHT22;11281;52.194;21.006;2023-02-28T00:28:06;-2.50;99.90
22224;DHT22;11281;52.194;21.006;2023-02-28T00:32:28;-2.70;99.90
22224;DHT22;11281;52.194;21.006;2023-02-28T00:36:49;-2.80;99.90
22224;DHT22;11281;52.194;21.006;2023-02-28T00:41:11;-2.90;99.90
22224;DHT22;11281;52.194;21.006;2023-02-28T00:45:33;-2.90;99.90
22224;DHT22;11281;52.194;21.006;2023-02-28T00:49:54;-3.10;99.90
22224;DHT22;11281;52.194;21.006;2023-02-28T00:54:16;-3.20;99.90
22224;DHT22;11281;52.194;21.006;2023-02-28T00:58:38;-3.30;99.90
22224;DHT22;11281;52.194;21.006;2023-02-28T01:03:00;-3.40;99.90
22224;DHT22;11281;52.194;21.006;2023-02-28T01:07:22;-3.60;99.90
22224;DHT22;11281;52.194;21.006;2023-02-28T01:11:44;-3.60;99.90
22224;DHT22;11281;52.194;21.006;2023-02-28T01:16:06;-3.70;99.90
22224;DHT22;11281;52.194;21.006;2023-02-28T01:20:28;-3.80;99.90
22224;DHT22;11281;52.194;21.006;2023-02-28T01:24:49;-3.90;99.90
22224;DHT22;11281;52.194;21.006;2023-02-28T01:29:11;-4.00;99.90
22224;DHT22;11281;52.194;21.006;2023-02-28T01:33:33;-4.10;99.90
22224;DHT22;11281;52.194;21.006;2023-02-28T01:37:55;-4.10;99.90
22224;DHT22;11281;52.194;21.006;2023-02-28T01:42:17;-4.20;99.90
22224;DHT22;11281;52.194;21.006;2023-02-28T01:46:38;-4.20;99.90
22224;DHT22;11281;52.194;21.006;2023-02-28T01:51:05;-4.30;99.90
22224;DHT22;11281;52.194;21.006;2023-02-28T01:55:31;-4.40;99.90
22224;DHT22;11281;52.194;21.006;2023-02-28T02:00:03;-4.40;99.90
22224;DHT22;11281;52.194;21.006;2023-02-28T02:04:38;-4.60;99.90
22224;DHT22;11281;52.194;21.006;2023-02-28T02:09:02;-4.60;99.90
22224;DHT22;11281;52.194;21.006;2023-02-28T02:13:50;-4.70;99.90
22224;DHT22;11281;52.194;21.006;2023-02-28T02:18:37;-4.70;99.90
22224;DHT22;11281;52.194;21.006;2023-02-28T02:23:30;-4.70;99.90
22224;DHT22;11281;52.194;21.006;2023-02-28T02:33:38;-4.90;99.90
22224;DHT22;11281;52.194;21.006;2023-02-28T02:38:26;-4.80;99.90
22224;DHT22;11281;52.194;21.006;2023-02-28T02:43:08;-4.90;99.90
22224;DHT22;11281;52.194;21.006;2023-02-28T02:47:35;-5.00;99.90
22224;DHT22;11281;52.194;21.006;2023-02-28T02:52:04;-5.00;99.90
22224;DHT22;11281;52.194;21.006;2023-02-28T02:56:29;-4.90;99.90
22224;DHT22;11281;52.194;21.006;2023-02-28T03:00:58;-5.00;99.90
22224;DHT22;11281;52.194;21.006;2023-02-28T03:05:25;-4.90;99.90
22224;DHT22;11281;52.194;21.006;2023-02-28T03:09:52;-5.00;99.90
22224;DHT22;11281;52.194;21.006;2023-02-28T03:14:46;-5.00;99.90
22224;DHT22;11281;52.194;21.006;2023-02-28T03:28:48;-4.90;99.90
22224;DHT22;11281;52.194;21.006;2023-02-28T03:33:18;-4.90;99.90
22224;DHT22;11281;52.194;21.006;2023-02-28T03:37:45;-4.80;99.90
22224;DHT22;11281;52.194;21.006;2023-02-28T03:42:13;-4.70;99.90
22224;DHT22;11281;52.194;21.006;2023-02-28T03:46:38;-4.60;99.90
22224;DHT22;11281;52.194;21.006;2023-02-28T03:51:06;-4.50;99.90
22224;DHT22;11281;52.194;21.006;2023-02-28T03:55:37;-4.30;99.90
22224;DHT22;11281;52.194;21.006;2023-02-28T04:00:24;-4.30;99.90
22224;DHT22;11281;52.194;21.006;2023-02-28T04:04:49;-4.40;99.90
22224;DHT22;11281;52.194;21.006;2023-02-28T04:09:14;-4.40;99.90
22224;DHT22;11281;52.194;21.006;2023-02-28T04:13:35;-4.40;99.90
22224;DHT22;11281;52.194;21.006;2023-02-28T04:17:57;-4.40;99.90
22224;DHT22;11281;52.194;21.006;2023-02-28T04:22:19;-4.40;99.90
22224;DHT22;11281;52.194;21.006;2023-02-28T04:26:43;-4.40;99.90
22224;DHT22;11281;52.194;21.006;2023-02-28T04:31:06;-4.40;99.90
22224;DHT22;11281;52.194;21.006;2023-02-28T04:35:28;-4.50;99.90
22224;DHT22;11281;52.194;21.006;2023-02-28T04:39:50;-4.50;99.90
22224;DHT22;11281;52.194;21.006;2023-02-28T04:44:12;-4.50;99.90
22224;DHT22;11281;52.194;21.006;2023-02-28T04:48:36;-4.60;99.90
22224;DHT22;11281;52.194;21.006;2023-02-28T04:52:58;-4.60;99.90
22224;DHT22;11281;52.194;21.006;2023-02-28T04:57:20;-4.50;99.90
22224;DHT22;11281;52.194;21.006;2023-02-28T05:01:46;-4.50;99.90
22224;DHT22;11281;52.194;21.006;2023-02-28T05:06:10;-4.50;99.90
22224;DHT22;11281;52.194;21.006;2023-02-28T05:10:32;-4.40;99.90
22224;DHT22;11281;52.194;21.006;2023-02-28T05:14:54;-4.20;99.90
22224;DHT22;11281;52.194;21.006;2023-02-28T05:19:16;-4.10;99.90
22224;DHT22;11281;52.194;21.006;2023-02-28T05:23:38;-4.00;99.90
22224;DHT22;11281;52.194;21.006;2023-02-28T05:27:59;-3.80;99.90
22224;DHT22;11281;52.194;21.006;2023-02-28T05:32:21;-3.80;99.90
22224;DHT22;11281;52.194;21.006;2023-02-28T05:36:43;-3.70;99.90
22224;DHT22;11281;52.194;21.006;2023-02-28T05:41:09;-3.60;99.90
22224;DHT22;11281;52.194;21.006;2023-02-28T05:45:31;-3.30;99.90
22224;DHT22;11281;52.194;21.006;2023-02-28T05:49:53;-3.30;99.90
22224;DHT22;11281;52.194;21.006;2023-02-28T05:54:14;-3.10;99.90
22224;DHT22;11281;52.194;21.006;2023-02-28T05:58:36;-3.00;99.90
22224;DHT22;11281;52.194;21.006;2023-02-28T06:02:58;-2.90;99.90
22224;DHT22;11281;52.194;21.006;2023-02-28T06:07:22;-2.80;99.90
22224;DHT22;11281;52.194;21.006;2023-02-28T06:11:44;-2.60;99.90
22224;DHT22;11281;52.194;21.006;2023-02-28T06:16:06;-2.40;99.90
22224;DHT22;11281;52.194;21.006;2023-02-28T06:20:29;-2.20;99.90
22224;DHT22;11281;52.194;21.006;2023-02-28T06:24:51;-2.10;99.90
22224;DHT22;11281;52.194;21.006;2023-02-28T06:29:14;-1.90;99.90
22224;DHT22;11281;52.194;21.006;2023-02-28T06:33:40;-1.80;99.90
22224;DHT22;11281;52.194;21.006;2023-02-28T06:38:03;-1.70;99.90
22224;DHT22;11281;52.194;21.006;2023-02-28T06:42:25;-1.50;99.90
22224;DHT22;11281;52.194;21.006;2023-02-28T06:46:50;-1.40;99.90
22224;DHT22;11281;52.194;21.006;2023-02-28T06:51:14;-1.20;99.90
22224;DHT22;11281;52.194;21.006;2023-02-28T06:55:38;-1.20;99.90
22224;DHT22;11281;52.194;21.006;2023-02-28T07:00:03;-0.80;99.90
22224;DHT22;11281;52.194;21.006;2023-02-28T07:04:27;-0.60;99.90
22224;DHT22;11281;52.194;21.006;2023-02-28T07:08:53;-0.50;99.90
22224;DHT22;11281;52.194;21.006;2023-02-28T07:13:15;-0.60;99.90
22224;DHT22;11281;52.194;21.006;2023-02-28T07:17:36;-1.00;99.90
22224;DHT22;11281;52.194;21.006;2023-02-28T07:21:58;-0.90;99.90
22224;DHT22;11281;52.194;21.006;2023-02-28T07:26:20;-0.90;99.90
22224;DHT22;11281;52.194;21.006;2023-02-28T07:30:43;-1.00;99.90
22224;DHT22;11281;52.194;21.006;2023-02-28T07:35:05;-1.00;99.90
22224;DHT22;11281;52.194;21.006;2023-02-28T07:39:27;-0.90;99.90
22224;DHT22;11281;52.194;21.006;2023-02-28T07:43:48;-0.80;99.90
22224;DHT22;11281;52.194;21.006;2023-02-28T07:48:10;-0.70;99.90
22224;DHT22;11281;52.194;21.006;2023-02-28T07:52:32;-0.70;99.90
22224;DHT22;11281;52.194;21.006;2023-02-28T07:56:53;-0.60;99.90
22224;DHT22;11281;52.194;21.006;2023-02-28T08:01:15;-0.50;99.90
22224;DHT22;11281;52.194;21.006;2023-02-28T08:05:40;-0.50;99.90
22224;DHT22;11281;52.194;21.006;2023-02-28T08:10:02;-0.40;99.90
22224;DHT22;11281;52.194;21.006;2023-02-28T08:14:24;-0.30;99.90
22224;DHT22;11281;52.194;21.006;2023-02-28T08:18:46;-0.10;99.90
22224;DHT22;11281;52.194;21.006;2023-02-28T08:23:07;-0.10;99.90
22224;DHT22;11281;52.194;21.006;2023-02-28T08:27:29;0.20;99.90
22224;DHT22;11281;52.194;21.006;2023-02-28T08:31:51;0.50;99.90
22224;DHT22;11281;52.194;21.006;2023-02-28T08:36:12;0.40;99.90
22224;DHT22;11281;52.194;21.006;2023-02-28T08:40:34;0.30;99.90
22224;DHT22;11281;52.194;21.006;2023-02-28T08:44:56;0.60;99.90
22224;DHT22;11281;52.194;21.006;2023-02-28T08:49:17;0.30;99.90
22224;DHT22;11281;52.194;21.006;2023-02-28T08:53:40;0.70;99.90
22224;DHT22;11281;52.194;21.006;2023-02-28T08:58:02;0.90;99.90
22224;DHT22;11281;52.194;21.006;2023-02-28T09:02:23;1.10;99.90
22224;DHT22;11281;52.194;21.006;2023-02-28T09:06:45;1.20;99.90
22224;DHT22;11281;52.194;21.006;2023-02-28T09:11:08;1.50;99.90
22224;DHT22;11281;52.194;21.006;2023-02-28T09:15:30;1.30;99.90
22224;DHT22;11281;52.194;21.006;2023-02-28T09:19:51;1.50;99.90
22224;DHT22;11281;52.194;21.006;2023-02-28T09:24:13;1.60;99.90
22224;DHT22;11281;52.194;21.006;2023-02-28T09:28:36;1.60;99.90
22224;DHT22;11281;52.194;21.006;2023-02-28T09:32:58;1.60;99.90
22224;DHT22;11281;52.194;21.006;2023-02-28T09:37:19;1.50;99.90
22224;DHT22;11281;52.194;21.006;2023-02-28T09:41:43;1.40;99.90
22224;DHT22;11281;52.194;21.006;2023-02-28T09:46:32;1.30;99.90
22224;DHT22;11281;52.194;21.006;2023-02-28T09:51:13;1.20;99.90
22224;DHT22;11281;52.194;21.006;2023-02-28T09:55:57;1.40;99.90
22224;DHT22;11281;52.194;21.006;2023-02-28T10:04:56;1.30;99.90
22224;DHT22;11281;52.194;21.006;2023-02-28T10:09:24;1.70;99.90
22224;DHT22;11281;52.194;21.006;2023-02-28T10:13:56;2.00;99.90
22224;DHT22;11281;52.194;21.006;2023-02-28T10:18:32;2.20;99.90
22224;DHT22;11281;52.194;21.006;2023-02-28T10:23:21;2.00;99.90
22224;DHT22;11281;52.194;21.006;2023-02-28T10:27:43;2.20;99.90
22224;DHT22;11281;52.194;21.006;2023-02-28T10:32:05;2.00;99.90
22224;DHT22;11281;52.194;21.006;2023-02-28T10:36:27;2.00;99.90
22224;DHT22;11281;52.194;21.006;2023-02-28T10:40:50;1.90;99.90
22224;DHT22;11281;52.194;21.006;2023-02-28T10:45:14;2.00;99.90
22224;DHT22;11281;52.194;21.006;2023-02-28T10:49:37;2.10;99.90
22224;DHT22;11281;52.194;21.006;2023-02-28T10:54:29;2.40;99.90
22224;DHT22;11281;52.194;21.006;2023-02-28T11:03:34;2.40;99.90
22224;DHT22;11281;52.194;21.006;2023-02-28T11:08:14;2.20;99.90
22224;DHT22;11281;52.194;21.006;2023-02-28T11:12:38;2.30;99.90
22224;DHT22;11281;52.194;21.006;2023-02-28T11:17:18;2.50;99.90
22224;DHT22;11281;52.194;21.006;2023-02-28T11:21:49;2.80;99.90
22224;DHT22;11281;52.194;21.006;2023-02-28T11:26:39;2.60;99.10
22224;DHT22;11281;52.194;21.006;2023-02-28T11:35:38;3.00;95.30
22224;DHT22;11281;52.194;21.006;2023-02-28T11:40:00;3.10;96.70
22224;DHT22;11281;52.194;21.006;2023-02-28T11:44:55;3.10;97.60
22224;DHT22;11281;52.194;21.006;2023-02-28T12:04:26;3.20;92.70
22224;DHT22;11281;52.194;21.006;2023-02-28T12:08:58;3.50;91.60
22224;DHT22;11281;52.194;21.006;2023-02-28T12:13:38;3.20;90.20
22224;DHT22;11281;52.194;21.006;2023-02-28T12:28:04;3.20;92.60
22224;DHT22;11281;52.194;21.006;2023-02-28T12:32:42;3.30;92.50
22224;DHT22;11281;52.194;21.006;2023-02-28T12:37:12;3.40;90.90
22224;DHT22;11281;52.194;21.006;2023-02-28T12:42:01;3.40;90.20
22224;DHT22;11281;52.194;21.006;2023-02-28T12:46:30;3.50;91.30
22224;DHT22;11281;52.194;21.006;2023-02-28T12:50:55;3.60;89.70
22224;DHT22;11281;52.194;21.006;2023-02-28T13:00:28;3.20;90.20
22224;DHT22;11281;52.194;21.006;2023-02-28T13:05:19;3.30;94.40
22224;DHT22;11281;52.194;21.006;2023-02-28T13:10:10;3.60;87.50
22224;DHT22;11281;52.194;21.006;2023-02-28T13:14:37;3.50;90.60
22224;DHT22;11281;52.194;21.006;2023-02-28T13:19:10;3.40;90.50
22224;DHT22;11281;52.194;21.006;2023-02-28T13:24:00;3.30;88.20
22224;DHT22;11281;52.194;21.006;2023-02-28T13:33:31;3.40;91.40
22224;DHT22;11281;52.194;21.006;2023-02-28T13:38:12;3.40;91.00
22224;DHT22;11281;52.194;21.006;2023-02-28T13:42:47;3.40;91.30
22224;DHT22;11281;52.194;21.006;2023-02-28T13:47:19;3.30;91.40
22224;DHT22;11281;52.194;21.006;2023-02-28T13:51:48;3.20;93.70
22224;DHT22;11281;52.194;21.006;2023-02-28T13:56:35;3.40;92.60
22224;DHT22;11281;52.194;21.006;2023-02-28T14:11:06;3.20;94.40
22224;DHT22;11281;52.194;21.006;2023-02-28T14:19:55;3.10;94.20
22224;DHT22;11281;52.194;21.006;2023-02-28T14:39:17;2.90;94.20
22224;DHT22;11281;52.194;21.006;2023-02-28T14:43:54;2.80;93.10
22224;DHT22;11281;52.194;21.006;2023-02-28T14:48:20;2.80;94.10
22224;DHT22;11281;52.194;21.006;2023-02-28T14:52:43;2.70;94.00
22224;DHT22;11281;52.194;21.006;2023-02-28T14:57:05;2.70;92.20
22224;DHT22;11281;52.194;21.006;2023-02-28T15:01:26;2.60;95.50
22224;DHT22;11281;52.194;21.006;2023-02-28T15:05:56;2.60;92.80
22224;DHT22;11281;52.194;21.006;2023-02-28T15:10:25;2.40;94.80
22224;DHT22;11281;52.194;21.006;2023-02-28T15:14:47;2.40;94.40
22224;DHT22;11281;52.194;21.006;2023-02-28T15:19:25;2.30;96.00
22224;DHT22;11281;52.194;21.006;2023-02-28T15:23:55;2.20;96.50
22224;DHT22;11281;52.194;21.006;2023-02-28T15:28:20;2.10;97.90
22224;DHT22;11281;52.194;21.006;2023-02-28T15:32:43;2.00;99.10
22224;DHT22;11281;52.194;21.006;2023-02-28T15:41:49;1.80;99.60
22224;DHT22;11281;52.194;21.006;2023-02-28T15:46:12;1.70;99.90
22224;DHT22;11281;52.194;21.006;2023-02-28T15:50:36;1.50;99.90
22224;DHT22;11281;52.194;21.006;2023-02-28T15:54:59;1.30;99.90
22224;DHT22;11281;52.194;21.006;2023-02-28T15:59:35;1.20;99.90
22224;DHT22;11281;52.194;21.006;2023-02-28T16:04:03;0.90;99.90
22224;DHT22;11281;52.194;21.006;2023-02-28T16:08:26;0.80;99.90
22224;DHT22;11281;52.194;21.006;2023-02-28T16:12:48;0.60;99.90
22224;DHT22;11281;52.194;21.006;2023-02-28T16:17:27;0.60;99.90
22224;DHT22;11281;52.194;21.006;2023-02-28T16:21:56;0.50;99.90
22224;DHT22;11281;52.194;21.006;2023-02-28T16:26:21;0.40;99.90
22224;DHT22;11281;52.194;21.006;2023-02-28T16:30:44;0.10;99.90
22224;DHT22;11281;52.194;21.006;2023-02-28T16:35:09;-0.10;99.90
22224;DHT22;11281;52.194;21.006;2023-02-28T16:39:31;-0.20;99.90
22224;DHT22;11281;52.194;21.006;2023-02-28T16:43:55;-0.50;99.90
22224;DHT22;11281;52.194;21.006;2023-02-28T16:48:21;-0.60;99.90
22224;DHT22;11281;52.194;21.006;2023-02-28T16:52:43;-0.80;99.90
22224;DHT22;11281;52.194;21.006;2023-02-28T16:57:05;-0.90;99.90
22224;DHT22;11281;52.194;21.006;2023-02-28T17:01:28;-0.80;99.90
22224;DHT22;11281;52.194;21.006;2023-02-28T17:05:50;-0.80;99.90
22224;DHT22;11281;52.194;21.006;2023-02-28T17:10:20;-1.00;99.90
22224;DHT22;11281;52.194;21.006;2023-02-28T17:14:43;-1.20;99.90
22224;DHT22;11281;52.194;21.006;2023-02-28T17:19:06;-1.20;99.90
22224;DHT22;11281;52.194;21.006;2023-02-28T17:23:32;-1.50;99.90
22224;DHT22;11281;52.194;21.006;2023-02-28T17:27:53;-1.60;99.90
22224;DHT22;11281;52.194;21.006;2023-02-28T17:32:15;-1.70;99.90
22224;DHT22;11281;52.194;21.006;2023-02-28T17:36:37;-1.70;99.90
22224;DHT22;11281;52.194;21.006;2023-02-28T17:40:59;-1.90;99.90
22224;DHT22;11281;52.194;21.006;2023-02-28T17:45:21;-1.80;99.90
22224;DHT22;11281;52.194;21.006;2023-02-28T17:49:43;-1.90;99.90
22224;DHT22;11281;52.194;21.006;2023-02-28T17:54:05;-2.10;99.90
22224;DHT22;11281;52.194;21.006;2023-02-28T17:58:27;-2.20;99.90
22224;DHT22;11281;52.194;21.006;2023-02-28T18:02:49;-2.20;99.90
22224;DHT22;11281;52.194;21.006;2023-02-28T18:07:12;-2.30;99.90
22224;DHT22;11281;52.194;21.006;2023-02-28T18:11:33;-2.30;99.90
22224;DHT22;11281;52.194;21.006;2023-02-28T18:16:07;-2.30;99.90
22224;DHT22;11281;52.194;21.006;2023-02-28T18:20:29;-2.40;99.90
22224;DHT22;11281;52.194;21.006;2023-02-28T18:24:51;-2.40;99.90
22224;DHT22;11281;52.194;21.006;2023-02-28T18:29:17;-2.40;99.90
22224;DHT22;11281;52.194;21.006;2023-02-28T18:33:46;-2.40;99.90
22224;DHT22;11281;52.194;21.006;2023-02-28T18:38:16;-2.40;99.90
22224;DHT22;11281;52.194;21.006;2023-02-28T18:42:39;-2.40;99.90
22224;DHT22;11281;52.194;21.006;2023-02-28T18:47:01;-2.50;99.90
22224;DHT22;11281;52.194;21.006;2023-02-28T18:51:24;-2.40;99.90
22224;DHT22;11281;52.194;21.006;2023-02-28T18:55:47;-2.30;99.90
22224;DHT22;11281;52.194;21.006;2023-02-28T19:00:09;-2.30;99.90
22224;DHT22;11281;52.194;21.006;2023-02-28T19:04:31;-2.60;99.90
22224;DHT22;11281;52.194;21.006;2023-02-28T19:08:54;-2.60;99.90
22224;DHT22;11281;52.194;21.006;2023-02-28T19:13:17;-2.60;99.90
22224;DHT22;11281;52.194;21.006;2023-02-28T19:17:41;-2.60;99.90
22224;DHT22;11281;52.194;21.006;2023-02-28T19:22:02;-2.70;99.90
22224;DHT22;11281;52.194;21.006;2023-02-28T19:26:25;-2.70;99.90
22224;DHT22;11281;52.194;21.006;2023-02-28T19:30:48;-2.80;99.90
22224;DHT22;11281;52.194;21.006;2023-02-28T19:35:13;-2.80;99.90
22224;DHT22;11281;52.194;21.006;2023-02-28T19:39:35;-2.70;99.90
22224;DHT22;11281;52.194;21.006;2023-02-28T19:44:03;-2.70;99.90
22224;DHT22;11281;52.194;21.006;2023-02-28T19:48:25;-2.70;99.90
22224;DHT22;11281;52.194;21.006;2023-02-28T19:52:48;-2.70;99.90
22224;DHT22;11281;52.194;21.006;2023-02-28T19:57:10;-2.90;99.90
22224;DHT22;11281;52.194;21.006;2023-02-28T20:01:32;-3.00;99.90
22224;DHT22;11281;52.194;21.006;2023-02-28T20:06:00;-2.90;99.90
22224;DHT22;11281;52.194;21.006;2023-02-28T20:10:27;-2.90;99.90
22224;DHT22;11281;52.194;21.006;2023-02-28T20:14:49;-3.00;99.90
22224;DHT22;11281;52.194;21.006;2023-02-28T20:19:11;-3.00;99.90
22224;DHT22;11281;52.194;21.006;2023-02-28T20:23:33;-3.10;99.90
22224;DHT22;11281;52.194;21.006;2023-02-28T20:27:55;-3.20;99.90
22224;DHT22;11281;52.194;21.006;2023-02-28T20:32:17;-3.20;99.90
22224;DHT22;11281;52.194;21.006;2023-02-28T20:36:40;-3.20;99.90
22224;DHT22;11281;52.194;21.006;2023-02-28T20:41:01;-3.30;99.90
22224;DHT22;11281;52.194;21.006;2023-02-28T20:45:23;-3.30;99.90
22224;DHT22;11281;52.194;21.006;2023-02-28T20:49:45;-3.40;99.90
22224;DHT22;11281;52.194;21.006;2023-02-28T20:54:08;-3.40;99.90
22224;DHT22;11281;52.194;21.006;2023-02-28T20:58:33;-3.30;99.90
22224;DHT22;11281;52.194;21.006;2023-02-28T21:02:57;-3.10;99.90
22224;DHT22;11281;52.194;21.006;2023-02-28T21:07:19;-3.10;99.90
22224;DHT22;11281;52.194;21.006;2023-02-28T21:11:41;-3.10;99.90
22224;DHT22;11281;52.194;21.006;2023-02-28T21:16:07;-3.00;99.90
22224;DHT22;11281;52.194;21.006;2023-02-28T21:20:33;-3.10;99.90
22224;DHT22;11281;52.194;21.006;2023-02-28T21:24:55;-3.20;99.90
22224;DHT22;11281;52.194;21.006;2023-02-28T21:29:16;-3.30;99.90
22224;DHT22;11281;52.194;21.006;2023-02-28T21:33:38;-3.20;99.90
22224;DHT22;11281;52.194;21.006;2023-02-28T21:38:00;-3.20;99.90
22224;DHT22;11281;52.194;21.006;2023-02-28T21:42:22;-3.10;99.90
22224;DHT22;11281;52.194;21.006;2023-02-28T21:46:45;-3.00;99.90
22224;DHT22;11281;52.194;21.006;2023-02-28T21:51:13;-3.00;99.90
22224;DHT22;11281;52.194;21.006;2023-02-28T21:55:36;-3.00;99.90
22224;DHT22;11281;52.194;21.006;2023-02-28T21:59:58;-3.10;99.90
22224;DHT22;11281;52.194;21.006;2023-02-28T22:04:20;-3.10;99.90
22224;DHT22;11281;52.194;21.006;2023-02-28T22:08:46;-3.20;99.90
22224;DHT22;11281;52.194;21.006;2023-02-28T22:13:09;-3.20;99.90
22224;DHT22;11281;52.194;21.006;2023-02-28T22:17:30;-3.20;99.90
22224;DHT22;11281;52.194;21.006;2023-02-28T22:21:52;-3.10;99.90
22224;DHT22;11281;52.194;21.006;2023-02-28T22:26:17;-3.10;99.90
22224;DHT22;11281;52.194;21.006;2023-02-28T22:30:40;-3.10;99.90
22224;DHT22;11281;52.194;21.006;2023-02-28T22:35:02;-3.10;99.90
22224;DHT22;11281;52.194;21.006;2023-02-28T22:39:23;-3.20;99.90
22224;DHT22;11281;52.194;21.006;2023-02-28T22:43:50;-3.10;99.90
22224;DHT22;11281;52.194;21.006;2023-02-28T22:48:14;-3.20;99.90
22224;DHT22;11281;52.194;21.006;2023-02-28T22:52:39;-3.10;99.90
22224;DHT22;11281;52.194;21.006;2023-02-28T22:57:01;-3.10;99.90
22224;DHT22;11281;52.194;21.006;2023-02-28T23:01:24;-3.20;99.90
22224;DHT22;11281;52.194;21.006;2023-02-28T23:05:47;-3.30;99.90
22224;DHT22;11281;52.194;21.006;2023-02-28T23:10:13;-3.20;99.90
22224;DHT22;11281;52.194;21.006;2023-02-28T23:14:37;-3.20;99.90
22224;DHT22;11281;52.194;21.006;2023-02-28T23:19:01;-3.20;99.90
22224;DHT22;11281;52.194;21.006;2023-02-28T23:23:24;-3.10;99.90
22224;DHT22;11281;52.194;21.006;2023-02-28T23:27:47;-3.10;99.90
22224;DHT22;11281;52.194;21.006;2023-02-28T23:32:08;-3.20;99.90
22224;DHT22;11281;52.194;21.006;2023-02-28T23:36:30;-3.10;99.90
22224;DHT22;11281;52.194;21.006;2023-02-28T23:40:52;-3.10;99.90
22224;DHT22;11281;52.194;21.006;2023-02-28T23:45:14;-3.20;99.90
22224;DHT22;11281;52.194;21.006;2023-02-28T23:49:35;-3.20;99.90
22224;DHT22;11281;52.194;21.006;2023-02-28T23:53:57;-3.20;99.90
22224;DHT22;11281;52.194;21.006;2023-02-28T23:58:19;-3.30;99.90
